createdAt,value
2018-09-21T00:00:28.135Z,13.57
2018-09-21T00:02:57.109Z,12.83
2018-09-21T00:05:26.383Z,14.30
2018-09-21T00:07:55.555Z,13.37
2018-09-21T00:10:24.828Z,13.27
2018-09-21T00:12:54.554Z,12.90
2018-09-21T00:15:24.490Z,13.27
2018-09-21T00:17:53.647Z,13.33
2018-09-21T00:20:22.763Z,12.10
2018-09-21T00:22:51.809Z,13.43
2018-09-21T00:25:20.876Z,12.90
2018-09-21T00:27:49.992Z,11.40
2018-09-21T00:30:18.887Z,12.60
2018-09-21T00:32:47.879Z,11.23
2018-09-21T00:35:16.874Z,12.27
2018-09-21T00:37:46.328Z,12.53
2018-09-21T00:40:15.433Z,13.53
2018-09-21T00:42:44.720Z,12.60
2018-09-21T00:45:14.179Z,12.93
2018-09-21T00:47:43.194Z,13.23
2018-09-21T00:50:12.486Z,11.43
2018-09-21T00:52:41.619Z,11.90
2018-09-21T00:55:10.868Z,13.10
2018-09-21T00:57:40.231Z,13.00
2018-09-21T01:00:09.182Z,13.60
2018-09-21T01:02:38.531Z,12.80
2018-09-21T01:05:07.475Z,12.63
2018-09-21T01:07:36.502Z,13.33
2018-09-21T01:10:05.420Z,13.07
2018-09-21T01:12:34.490Z,12.60
2018-09-21T01:15:03.740Z,13.67
2018-09-21T01:17:32.738Z,12.03
2018-09-21T01:20:02.261Z,12.30
2018-09-21T01:22:31.303Z,11.53
2018-09-21T01:25:00.378Z,11.50
2018-09-21T01:27:29.532Z,12.57
2018-09-21T01:29:58.742Z,12.43
2018-09-21T01:32:27.839Z,11.40
2018-09-21T01:34:56.709Z,13.23
2018-09-21T01:37:25.718Z,13.10
2018-09-21T01:39:54.907Z,12.73
2018-09-21T01:42:23.950Z,13.40
2018-09-21T01:44:53.062Z,13.20
2018-09-21T01:47:22.185Z,12.53
2018-09-21T01:49:51.327Z,13.80
2018-09-21T01:52:20.389Z,13.10
2018-09-21T01:54:49.807Z,12.37
2018-09-21T01:57:19.252Z,12.00
2018-09-21T01:59:48.815Z,12.53
2018-09-21T02:02:17.801Z,11.73
2018-09-21T02:04:46.796Z,12.60
2018-09-21T02:07:15.928Z,12.63
2018-09-21T02:09:45.754Z,11.93
2018-09-21T02:12:14.806Z,12.27
2018-09-21T02:14:43.892Z,11.47
2018-09-21T02:17:12.876Z,11.73
2018-09-21T02:19:41.942Z,12.00
2018-09-21T02:22:10.930Z,11.17
2018-09-21T02:24:39.880Z,10.90
2018-09-21T02:27:09.112Z,10.93
2018-09-21T02:29:38.477Z,11.80
2018-09-21T02:32:07.739Z,10.90
2018-09-21T02:34:36.877Z,10.60
2018-09-21T02:37:05.960Z,11.00
2018-09-21T02:39:35.152Z,11.80
2018-09-21T02:42:04.058Z,11.47
2018-09-21T02:44:34.281Z,11.70
2018-09-21T02:47:03.991Z,11.70
2018-09-21T02:49:33.162Z,11.60
2018-09-21T02:52:02.106Z,12.63
2018-09-21T02:54:30.961Z,12.27
2018-09-21T02:57:00.615Z,12.20
2018-09-21T02:59:29.636Z,13.53
2018-09-21T03:01:58.680Z,12.50
2018-09-21T03:04:27.807Z,13.47
2018-09-21T03:06:56.755Z,15.73
2018-09-21T03:09:25.669Z,16.63
2018-09-21T03:11:54.704Z,17.50
2018-09-21T03:14:23.985Z,19.87
2018-09-21T03:16:52.959Z,19.30
2018-09-21T03:19:22.828Z,18.07
2018-09-21T03:21:52.011Z,17.27
2018-09-21T03:24:21.114Z,16.63
2018-09-21T03:26:51.549Z,19.17
2018-09-21T03:29:20.497Z,18.40
2018-09-21T03:31:49.463Z,18.10
2018-09-21T03:34:18.636Z,18.07
2018-09-21T03:36:47.701Z,18.60
2018-09-21T03:39:16.870Z,18.47
2018-09-21T03:41:46.000Z,18.47
2018-09-21T03:44:14.947Z,19.93
2018-09-21T03:46:43.793Z,19.70
2018-09-21T03:49:13.563Z,19.73
2018-09-21T03:51:42.576Z,17.33
2018-09-21T03:54:11.630Z,19.50
2018-09-21T03:56:40.637Z,18.43
2018-09-21T03:59:09.805Z,18.00
2018-09-21T04:01:39.070Z,16.70
2018-09-21T04:04:08.959Z,17.87
2018-09-21T04:06:37.966Z,16.80
2018-09-21T04:09:09.254Z,17.47
2018-09-21T04:11:38.456Z,18.00
2018-09-21T04:14:07.594Z,16.00
2018-09-21T04:16:36.576Z,16.40
2018-09-21T04:19:05.600Z,17.40
2018-09-21T04:21:34.828Z,17.27
2018-09-21T04:24:03.855Z,16.37
2018-09-21T04:26:32.707Z,16.77
2018-09-21T04:29:01.688Z,18.00
2018-09-21T04:31:30.806Z,16.97
2018-09-21T04:34:00.122Z,17.70
2018-09-21T04:36:29.175Z,16.43
2018-09-21T04:38:58.294Z,17.10
2018-09-21T04:41:27.573Z,16.87
2018-09-21T04:43:56.530Z,17.00
2018-09-21T04:46:26.142Z,16.60
2018-09-21T04:48:55.177Z,14.87
2018-09-21T04:51:24.327Z,16.20
2018-09-21T04:53:53.242Z,17.87
2018-09-21T04:56:22.296Z,16.60
2018-09-21T04:58:51.184Z,16.37
2018-09-21T05:01:20.302Z,19.63
2018-09-21T05:03:49.303Z,18.70
2018-09-21T05:06:18.434Z,18.73
2018-09-21T05:08:47.509Z,18.80
2018-09-21T05:11:16.591Z,20.50
2018-09-21T05:13:45.711Z,18.70
2018-09-21T05:16:14.893Z,20.23
2018-09-21T05:18:43.965Z,21.43
2018-09-21T05:21:13.134Z,20.70
2018-09-21T05:23:42.192Z,20.10
2018-09-21T05:26:11.195Z,21.53
2018-09-21T05:28:40.710Z,20.53
2018-09-21T05:31:09.800Z,21.70
2018-09-21T05:33:38.782Z,21.50
2018-09-21T05:36:07.950Z,22.90
2018-09-21T05:38:36.847Z,22.07
2018-09-21T05:41:06.029Z,20.07
2018-09-21T05:43:34.867Z,22.90
2018-09-21T05:46:03.929Z,20.53
2018-09-21T05:48:32.988Z,22.20
2018-09-21T05:51:02.442Z,21.83
2018-09-21T05:53:33.081Z,20.43
2018-09-21T05:56:02.978Z,21.20
2018-09-21T05:58:32.093Z,20.30
2018-09-21T06:01:01.148Z,22.50
2018-09-21T06:03:30.164Z,20.60
2018-09-21T06:05:59.027Z,22.00
2018-09-21T06:08:27.955Z,21.30
2018-09-21T06:10:56.839Z,21.10
2018-09-21T06:13:25.879Z,22.23
2018-09-21T06:15:55.659Z,22.47
2018-09-21T06:18:24.663Z,22.20
2018-09-21T06:20:53.586Z,22.23
2018-09-21T06:23:22.760Z,21.23
2018-09-21T06:25:52.457Z,22.47
2018-09-21T06:28:21.420Z,22.80
2018-09-21T06:30:51.184Z,23.70
2018-09-21T06:33:20.199Z,21.47
2018-09-21T06:35:49.400Z,20.23
2018-09-21T06:38:18.389Z,19.67
2018-09-21T06:40:47.616Z,20.93
2018-09-21T06:43:16.694Z,20.03
2018-09-21T06:45:45.675Z,20.07
2018-09-21T06:48:14.902Z,21.60
2018-09-21T06:50:44.036Z,19.73
2018-09-21T06:53:13.250Z,22.97
2018-09-21T06:55:42.438Z,22.13
2018-09-21T06:58:11.423Z,20.63
2018-09-21T07:00:41.421Z,20.70
2018-09-21T07:03:11.044Z,19.77
2018-09-21T07:05:40.210Z,20.53
2018-09-21T07:08:09.403Z,18.30
2018-09-21T07:10:38.502Z,20.80
2018-09-21T07:13:07.551Z,20.00
2018-09-21T07:15:37.158Z,19.40
2018-09-21T07:18:06.355Z,18.10
2018-09-21T07:20:35.299Z,19.37
2018-09-21T07:23:04.708Z,19.10
2018-09-21T07:25:33.822Z,18.23
2018-09-21T07:28:02.922Z,19.07
2018-09-21T07:30:32.391Z,19.90
2018-09-21T07:33:01.566Z,18.33
2018-09-21T07:35:30.956Z,18.20
2018-09-21T07:38:00.185Z,16.37
2018-09-21T07:40:29.216Z,18.47
2018-09-21T07:42:58.491Z,17.00
2018-09-21T07:45:27.580Z,16.90
2018-09-21T07:47:56.548Z,16.23
2018-09-21T07:50:25.682Z,17.80
2018-09-21T07:52:54.868Z,16.53
2018-09-21T07:55:23.885Z,15.43
2018-09-21T07:57:52.978Z,16.03
2018-09-21T08:00:22.311Z,16.40
2018-09-21T08:02:51.350Z,16.40
2018-09-21T08:05:27.891Z,17.67
2018-09-21T08:07:56.977Z,15.03
2018-09-21T08:10:26.490Z,15.73
2018-09-21T08:12:55.600Z,15.50
2018-09-21T08:15:24.734Z,16.07
2018-09-21T08:17:53.746Z,15.33
2018-09-21T08:20:23.587Z,14.23
2018-09-21T08:22:52.822Z,14.73
2018-09-21T08:25:21.912Z,13.87
2018-09-21T08:27:50.931Z,15.87
2018-09-21T08:30:20.083Z,13.80
2018-09-21T08:32:49.541Z,14.37
2018-09-21T08:35:18.989Z,12.40
2018-09-21T08:37:48.065Z,13.03
2018-09-21T08:40:17.278Z,11.30
2018-09-21T08:42:46.436Z,12.27
2018-09-21T08:45:15.689Z,11.73
2018-09-21T08:47:45.291Z,10.87
2018-09-21T08:50:14.274Z,11.00
2018-09-21T08:52:44.162Z,9.83
2018-09-21T08:55:13.192Z,10.47
2018-09-21T08:57:42.582Z,11.63
2018-09-21T09:00:11.979Z,10.90
2018-09-21T09:02:41.152Z,10.00
2018-09-21T09:05:10.743Z,10.27
2018-09-21T09:07:39.706Z,9.97
2018-09-21T09:10:09.269Z,9.97
2018-09-21T09:12:38.491Z,11.27
2018-09-21T09:15:07.478Z,12.23
2018-09-21T09:17:36.676Z,10.80
2018-09-21T09:20:05.900Z,10.20
2018-09-21T09:22:34.892Z,10.00
2018-09-21T09:25:04.780Z,9.83
2018-09-21T09:27:33.874Z,10.90
2018-09-21T09:30:03.296Z,10.07
2018-09-21T09:32:32.854Z,9.50
2018-09-21T09:35:02.161Z,9.47
2018-09-21T09:37:31.291Z,9.67
2018-09-21T09:40:00.551Z,10.50
2018-09-21T09:42:29.500Z,9.93
2018-09-21T09:44:58.573Z,9.87
2018-09-21T09:47:27.684Z,10.23
2018-09-21T09:49:57.131Z,10.63
2018-09-21T09:52:26.476Z,10.03
2018-09-21T09:54:56.039Z,10.40
2018-09-21T09:57:25.291Z,9.63
2018-09-21T09:59:54.721Z,9.23
2018-09-21T10:02:24.376Z,10.37
2018-09-21T10:04:53.572Z,9.33
2018-09-21T10:07:23.067Z,8.80
2018-09-21T10:09:52.332Z,10.10
2018-09-21T10:12:21.307Z,9.87
2018-09-21T10:14:50.814Z,8.60
2018-09-21T10:17:19.907Z,8.87
2018-09-21T10:19:48.869Z,9.90
2018-09-21T10:22:18.039Z,8.70
2018-09-21T10:24:46.980Z,7.87
2018-09-21T10:27:16.016Z,8.63
2018-09-21T10:29:45.688Z,8.43
2018-09-21T10:32:14.889Z,7.83
2018-09-21T10:34:44.129Z,8.53
2018-09-21T10:37:13.436Z,8.17
2018-09-21T10:39:42.562Z,11.27
2018-09-21T10:42:11.586Z,9.10
2018-09-21T10:44:41.238Z,8.07
2018-09-21T10:47:10.359Z,7.67
2018-09-21T10:49:39.311Z,8.40
2018-09-21T10:52:08.770Z,8.40
2018-09-21T10:54:37.906Z,8.70
2018-09-21T10:57:06.764Z,7.73
2018-09-21T10:59:35.789Z,8.07
2018-09-21T11:02:04.878Z,7.67
2018-09-21T11:04:34.146Z,7.80
2018-09-21T11:07:03.583Z,8.33
2018-09-21T11:09:32.957Z,8.10
2018-09-21T11:12:02.079Z,7.93
2018-09-21T11:14:31.042Z,8.47
2018-09-21T11:17:00.326Z,8.47
2018-09-21T11:19:29.857Z,7.20
2018-09-21T11:21:58.859Z,7.07
2018-09-21T11:24:28.046Z,7.47
2018-09-21T11:26:57.162Z,7.67
2018-09-21T11:29:26.695Z,6.80
2018-09-21T11:31:55.865Z,7.30
2018-09-21T11:34:24.755Z,6.73
2018-09-21T11:36:55.456Z,6.77
2018-09-21T11:39:24.487Z,7.20
2018-09-21T11:41:53.573Z,7.97
2018-09-21T11:44:22.896Z,7.40
2018-09-21T11:46:52.280Z,6.67
2018-09-21T11:49:21.579Z,7.60
2018-09-21T11:51:50.573Z,7.63
2018-09-21T11:54:20.491Z,7.00
2018-09-21T11:56:49.609Z,7.43
2018-09-21T11:59:18.957Z,6.87
2018-09-21T12:01:48.284Z,7.40
2018-09-21T12:04:17.871Z,7.00
2018-09-21T12:06:47.604Z,6.83
2018-09-21T12:09:16.598Z,8.17
2018-09-21T12:11:46.528Z,7.47
2018-09-21T12:14:15.583Z,8.30
2018-09-21T12:16:44.713Z,7.27
2018-09-21T12:19:14.007Z,6.90
2018-09-21T12:21:43.792Z,7.47
2018-09-21T12:24:13.501Z,8.27
2018-09-21T12:26:42.651Z,8.00
2018-09-21T12:29:12.607Z,7.87
2018-09-21T12:31:41.751Z,7.70
2018-09-21T12:34:11.261Z,7.83
2018-09-21T12:36:40.360Z,7.37
2018-09-21T12:39:11.600Z,7.30
2018-09-21T12:41:40.600Z,7.47
2018-09-21T12:44:10.146Z,7.50
2018-09-21T12:46:39.075Z,7.70
2018-09-21T12:49:08.164Z,7.93
2018-09-21T12:51:37.358Z,7.47
2018-09-21T12:54:06.760Z,9.90
2018-09-21T12:56:35.821Z,8.40
2018-09-21T12:59:05.149Z,6.83
2018-09-21T13:01:34.250Z,7.63
2018-09-21T13:04:03.230Z,8.00
2018-09-21T13:06:32.244Z,7.63
2018-09-21T13:09:01.972Z,8.33
2018-09-21T13:11:31.199Z,7.90
2018-09-21T13:14:00.181Z,7.30
2018-09-21T13:16:29.298Z,6.90
2018-09-21T13:18:58.461Z,7.30
2018-09-21T13:21:27.683Z,8.70
2018-09-21T13:23:57.068Z,7.90
2018-09-21T13:26:26.330Z,7.40
2018-09-21T13:28:55.483Z,7.43
2018-09-21T13:31:24.306Z,7.40
2018-09-21T13:33:53.471Z,7.40
2018-09-21T13:36:22.547Z,7.20
2018-09-21T13:38:51.647Z,7.80
2018-09-21T13:41:20.798Z,7.97
2018-09-21T13:43:50.111Z,7.67
2018-09-21T13:46:19.230Z,7.43
2018-09-21T13:48:48.968Z,7.30
2018-09-21T13:51:18.981Z,6.43
2018-09-21T13:53:47.979Z,6.50
2018-09-21T13:56:17.179Z,7.53
2018-09-21T13:58:46.111Z,7.50
2018-09-21T14:01:15.041Z,6.80
2018-09-21T14:03:44.152Z,6.30
2018-09-21T14:06:13.673Z,7.50
2018-09-21T14:08:42.776Z,7.47
2018-09-21T14:11:11.714Z,7.50
2018-09-21T14:13:40.962Z,6.70
2018-09-21T14:16:10.062Z,7.03
2018-09-21T14:18:39.126Z,6.93
2018-09-21T14:21:08.343Z,6.50
2018-09-21T14:23:37.423Z,7.00
2018-09-21T14:26:06.520Z,6.77
2018-09-21T14:28:35.890Z,6.90
2018-09-21T14:31:05.151Z,7.40
2018-09-21T14:33:34.375Z,6.77
2018-09-21T14:36:03.315Z,7.10
2018-09-21T14:38:33.166Z,7.37
2018-09-21T14:41:02.737Z,7.43
2018-09-21T14:43:31.624Z,6.77
2018-09-21T14:46:00.825Z,6.70
2018-09-21T14:48:29.879Z,7.37
2018-09-21T14:50:58.845Z,7.50
2018-09-21T14:53:27.850Z,6.83
2018-09-21T14:55:57.517Z,6.83
2018-09-21T14:58:26.624Z,7.63
2018-09-21T15:00:56.005Z,6.77
2018-09-21T15:03:25.033Z,6.27
2018-09-21T15:05:54.351Z,6.77
2018-09-21T15:08:23.986Z,6.90
2018-09-21T15:10:53.162Z,7.20
2018-09-21T15:13:22.230Z,6.97
2018-09-21T15:15:51.555Z,6.77
2018-09-21T15:18:20.516Z,6.60
2018-09-21T15:20:49.898Z,7.27
2018-09-21T15:23:18.999Z,7.00
2018-09-21T15:25:48.363Z,7.93
2018-09-21T15:28:17.156Z,7.30
2018-09-21T15:30:46.387Z,6.83
2018-09-21T15:33:15.567Z,7.47
2018-09-21T15:35:45.033Z,7.40
2018-09-21T15:38:14.102Z,6.87
2018-09-21T15:40:43.425Z,7.33
2018-09-21T15:43:12.656Z,6.83
2018-09-21T15:45:41.766Z,7.03
2018-09-21T15:48:11.157Z,7.70
2018-09-21T15:50:40.216Z,7.03
2018-09-21T15:53:09.324Z,7.80
2018-09-21T15:55:38.395Z,7.20
2018-09-21T15:58:07.603Z,7.17
2018-09-21T16:00:37.504Z,7.07
2018-09-21T16:03:06.888Z,7.50
2018-09-21T16:05:35.983Z,7.80
2018-09-21T16:08:05.025Z,6.90
2018-09-21T16:10:33.859Z,7.07
2018-09-21T16:13:03.618Z,7.80
2018-09-21T16:15:32.602Z,8.17
2018-09-21T16:18:01.623Z,8.17
2018-09-21T16:20:30.668Z,7.27
2018-09-21T16:23:00.919Z,8.10
2018-09-21T16:25:29.769Z,7.50
2018-09-21T16:27:58.740Z,7.70
2018-09-21T16:30:27.679Z,7.40
2018-09-21T16:32:57.124Z,7.90
2018-09-21T16:35:26.222Z,7.30
2018-09-21T16:37:55.193Z,8.10
2018-09-21T16:40:24.211Z,8.00
2018-09-21T16:42:53.637Z,7.67
2018-09-21T16:45:22.878Z,7.93
2018-09-21T16:47:52.169Z,8.03
2018-09-21T16:50:21.839Z,8.20
2018-09-21T16:52:51.180Z,7.50
2018-09-21T16:55:20.097Z,8.60
2018-09-21T16:57:49.095Z,7.27
2018-09-21T17:00:18.159Z,7.67
2018-09-21T17:02:47.298Z,8.53
2018-09-21T17:05:16.467Z,7.63
2018-09-21T17:07:45.718Z,8.50
2018-09-21T17:10:14.795Z,8.40
2018-09-21T17:12:43.791Z,8.80
2018-09-21T17:15:12.988Z,8.03
2018-09-21T17:17:41.997Z,8.40
2018-09-21T17:20:11.157Z,7.77
2018-09-21T17:22:40.505Z,8.63
2018-09-21T17:25:09.890Z,8.20
2018-09-21T17:27:39.001Z,8.87
2018-09-21T17:30:08.435Z,8.43
2018-09-21T17:32:37.698Z,9.07
2018-09-21T17:35:06.982Z,7.93
2018-09-21T17:37:36.130Z,8.00
2018-09-21T17:40:05.972Z,8.97
2018-09-21T17:42:35.148Z,12.80
2018-09-21T17:45:04.936Z,10.23
2018-09-21T17:47:34.276Z,9.73
2018-09-21T17:50:03.295Z,10.33
2018-09-21T17:52:32.917Z,9.00
2018-09-21T17:55:03.715Z,8.60
2018-09-21T17:57:32.995Z,9.67
2018-09-21T18:00:02.328Z,10.40
2018-09-21T18:02:31.477Z,8.23
2018-09-21T18:05:00.702Z,9.83
2018-09-21T18:07:30.239Z,9.50
2018-09-21T18:09:59.390Z,10.00
2018-09-21T18:12:28.447Z,9.13
2018-09-21T18:14:57.478Z,9.40
2018-09-21T18:17:26.598Z,9.67
2018-09-21T18:19:56.172Z,9.17
2018-09-21T18:22:25.399Z,9.93
2018-09-21T18:24:54.959Z,9.53
2018-09-21T18:27:24.124Z,9.70
2018-09-21T18:29:53.162Z,9.60
2018-09-21T18:32:22.595Z,10.13
2018-09-21T18:34:51.776Z,11.20
2018-09-21T18:37:20.862Z,9.20
2018-09-21T18:39:50.040Z,9.53
2018-09-21T18:42:19.108Z,9.70
2018-09-21T18:44:48.299Z,9.43
2018-09-21T18:47:17.595Z,10.33
2018-09-21T18:49:46.557Z,9.53
2018-09-21T18:52:15.694Z,10.23
2018-09-21T18:54:45.121Z,9.37
2018-09-21T18:57:15.591Z,9.83
2018-09-21T18:59:44.899Z,9.37
2018-09-21T19:02:14.298Z,10.30
2018-09-21T19:04:43.595Z,11.20
2018-09-21T19:07:17.706Z,10.90
2018-09-21T19:09:46.830Z,10.53
2018-09-21T19:12:15.817Z,10.33
2018-09-21T19:14:45.658Z,11.00
2018-09-21T19:17:14.938Z,11.90
2018-09-21T19:19:44.458Z,10.77
2018-09-21T19:22:13.717Z,10.37
2018-09-21T19:24:43.235Z,11.10
2018-09-21T19:27:12.857Z,11.27
2018-09-21T19:29:42.283Z,11.17
2018-09-21T19:32:12.317Z,11.00
2018-09-21T19:34:41.735Z,10.50
2018-09-21T19:37:11.538Z,10.40
2018-09-21T19:39:41.101Z,11.33
2018-09-21T19:42:10.343Z,10.97
2018-09-21T19:44:39.328Z,11.40
2018-09-21T19:47:08.434Z,11.77
2018-09-21T19:49:37.477Z,12.07
2018-09-21T19:52:06.488Z,11.30
2018-09-21T19:54:35.936Z,11.17
2018-09-21T19:57:05.320Z,10.40
2018-09-21T19:59:34.605Z,11.20
2018-09-21T20:02:03.670Z,12.00
2018-09-21T20:04:33.330Z,10.90
2018-09-21T20:07:02.299Z,11.57
2018-09-21T20:09:31.269Z,11.70
2018-09-21T20:12:00.296Z,12.10
2018-09-21T20:14:29.532Z,12.07
2018-09-21T20:16:58.898Z,12.30
2018-09-21T20:19:28.119Z,14.40
2018-09-21T20:21:57.294Z,14.20
2018-09-21T20:24:26.283Z,11.80
2018-09-21T20:26:55.451Z,12.30
2018-09-21T20:29:24.360Z,12.57
2018-09-21T20:31:58.685Z,12.33
2018-09-21T20:34:27.737Z,12.43
2018-09-21T20:36:56.895Z,10.93
2018-09-21T20:39:26.044Z,12.37
2018-09-21T20:41:55.076Z,12.63
2018-09-21T20:44:24.222Z,12.07
2018-09-21T20:46:53.458Z,12.60
2018-09-21T20:49:22.817Z,13.17
2018-09-21T20:51:52.091Z,13.10
2018-09-21T20:54:21.267Z,12.90
2018-09-21T20:56:50.493Z,12.73
2018-09-21T20:59:19.540Z,13.23
2018-09-21T21:01:48.982Z,12.97
2018-09-21T21:04:18.053Z,14.43
2018-09-21T21:06:46.982Z,13.80
2018-09-21T21:09:16.053Z,14.87
2018-09-21T21:11:45.150Z,13.33
2018-09-21T21:14:14.066Z,13.10
2018-09-21T21:16:42.947Z,12.80
2018-09-21T21:19:12.616Z,12.90
2018-09-21T21:21:42.735Z,12.77
2018-09-21T21:24:11.890Z,14.53
2018-09-21T21:26:41.166Z,13.90
2018-09-21T21:29:10.480Z,13.57
2018-09-21T21:31:39.551Z,12.70
2018-09-21T21:34:08.384Z,12.40
2018-09-21T21:36:37.745Z,12.63
2018-09-21T21:39:09.028Z,12.90
2018-09-21T21:41:38.369Z,13.33
2018-09-21T21:44:07.471Z,13.73
2018-09-21T21:46:36.580Z,13.53
2018-09-21T21:49:05.832Z,14.37
2018-09-21T21:51:34.983Z,15.00
2018-09-21T21:54:04.146Z,10.20
2018-09-21T21:56:33.534Z,7.90
2018-09-21T21:59:02.731Z,7.93
2018-09-21T22:01:36.954Z,8.30
2018-09-21T22:04:06.131Z,7.00
2018-09-21T22:06:35.081Z,6.63
2018-09-21T22:09:05.441Z,6.30
2018-09-21T22:11:39.639Z,6.00
2018-09-21T22:14:10.059Z,6.70
2018-09-21T22:16:40.159Z,4.80
2018-09-21T22:19:10.163Z,6.50
2018-09-21T22:21:39.132Z,6.00
2018-09-21T22:24:08.078Z,6.70
2018-09-21T22:26:37.234Z,5.37
2018-09-21T22:29:06.755Z,6.63
2018-09-21T22:31:35.710Z,7.20
2018-09-21T22:34:04.748Z,7.03
2018-09-21T22:36:33.909Z,6.53
2018-09-21T22:39:03.193Z,5.87
2018-09-21T22:41:34.046Z,6.20
2018-09-21T22:44:03.179Z,6.60
2018-09-21T22:46:32.512Z,6.97
2018-09-21T22:49:02.773Z,5.73
2018-09-21T22:51:31.810Z,7.10
2018-09-21T22:54:01.320Z,5.80
2018-09-21T22:56:30.330Z,6.47
2018-09-21T22:58:59.541Z,5.93
2018-09-21T23:01:28.722Z,7.50
2018-09-21T23:03:57.711Z,6.60
2018-09-21T23:06:26.911Z,6.27
2018-09-21T23:08:56.910Z,6.60
2018-09-21T23:11:26.914Z,5.83
2018-09-21T23:13:56.007Z,5.90
2018-09-21T23:16:25.079Z,4.90
2018-09-21T23:18:56.257Z,5.40
2018-09-21T23:21:25.447Z,6.00
2018-09-21T23:23:54.468Z,5.60
2018-09-21T23:26:23.471Z,5.43
2018-09-21T23:28:52.371Z,5.63
2018-09-21T23:31:21.859Z,5.50
2018-09-21T23:33:50.879Z,5.67
2018-09-21T23:36:19.749Z,4.73
2018-09-21T23:38:49.015Z,4.93
2018-09-21T23:41:18.151Z,5.03
2018-09-21T23:43:47.330Z,4.70
2018-09-21T23:46:16.331Z,4.63
2018-09-21T23:48:45.545Z,5.10
2018-09-21T23:51:14.741Z,5.60
2018-09-21T23:53:44.141Z,5.27
2018-09-21T23:56:13.444Z,4.63
2018-09-21T23:58:42.485Z,5.63
